Time;durP1;ratioP1;P1;durP2;ratioP2;P2;SDS_P1;SDS_P2;PMS_P1;PMS_P2;Temp;Humidity;BMP_temperature;BMP_pressure;BME280_temperature;BME280_humidity;BME280_pressure;Samples;Min_cycle;Max_cycle;Signal;HPM_P1;HPM_P2
2021/11/06 00:00:09;;;;;;;19.60;16.88;;;5.80;99.90;;;;;;4996041;28;20206;-83
2021/11/06 00:02:35;;;;;;;20.25;18.15;;;5.70;99.90;;;;;;4990655;28;20220;-82
2021/11/06 00:05:02;;;;;;;20.30;17.38;;;5.70;99.90;;;;;;4993183;28;20200;-82
2021/11/06 00:07:29;;;;;;;22.58;18.25;;;5.70;99.90;;;;;;4994159;28;20205;-82
2021/11/06 00:09:56;;;;;;;21.67;17.95;;;5.70;99.90;;;;;;4999834;28;20208;-82
2021/11/06 00:12:24;;;;;;;24.25;18.77;;;5.60;99.90;;;;;;4996297;28;20291;-82
2021/11/06 00:14:51;;;;;;;19.27;16.38;;;5.60;99.90;;;;;;4996200;28;20212;-82
2021/11/06 00:17:17;;;;;;;21.05;18.58;;;5.60;99.90;;;;;;5004217;28;20203;-80
2021/11/06 00:19:44;;;;;;;23.13;19.50;;;5.60;99.90;;;;;;5003482;28;20206;-81
2021/11/06 00:22:12;;;;;;;22.58;19.83;;;5.50;99.90;;;;;;5001020;28;21360;-81
2021/11/06 00:24:39;;;;;;;22.25;19.50;;;5.50;99.90;;;;;;5002374;28;20212;-82
2021/11/06 00:27:06;;;;;;;25.17;16.83;;;5.40;99.90;;;;;;4998128;28;20596;-82
2021/11/06 00:29:34;;;;;;;20.38;15.75;;;5.40;99.90;;;;;;4992530;28;20196;-82
2021/11/06 00:32:05;;;;;;;18.48;16.40;;;5.40;99.90;;;;;;4997836;28;20203;-82
2021/11/06 00:34:31;;;;;;;19.52;15.93;;;5.20;99.90;;;;;;4992703;28;20204;-83
2021/11/06 00:36:58;;;;;;;20.98;18.60;;;5.10;99.90;;;;;;4994484;28;20219;-82
2021/11/06 00:39:25;;;;;;;20.55;16.60;;;5.10;99.90;;;;;;4995184;28;20220;-82
2021/11/06 00:41:52;;;;;;;18.60;16.42;;;5.10;99.90;;;;;;4996401;28;20210;-82
2021/11/06 00:44:19;;;;;;;19.90;16.17;;;5.00;99.90;;;;;;4990626;28;20208;-82
2021/11/06 00:46:47;;;;;;;19.80;16.20;;;5.10;99.90;;;;;;4993935;28;20207;-82
2021/11/06 00:49:13;;;;;;;18.95;15.18;;;5.10;99.90;;;;;;4989971;28;20197;-82
2021/11/06 00:51:40;;;;;;;18.40;15.15;;;5.00;99.90;;;;;;4994354;28;20229;-82
2021/11/06 00:54:07;;;;;;;18.25;14.73;;;5.00;99.90;;;;;;4993066;28;20228;-82
2021/11/06 00:56:35;;;;;;;19.30;16.80;;;5.00;99.90;;;;;;4989672;28;20657;-84
2021/11/06 00:59:01;;;;;;;17.40;14.88;;;4.90;99.90;;;;;;5000462;28;20283;-83
2021/11/06 01:01:28;;;;;;;17.92;15.73;;;4.90;99.90;;;;;;5003135;28;20388;-83
2021/11/06 01:03:57;;;;;;;20.85;15.57;;;4.80;99.90;;;;;;5004133;28;20224;-84
2021/11/06 01:06:24;;;;;;;22.45;14.57;;;4.80;99.90;;;;;;5003430;28;20209;-83
2021/11/06 01:08:51;;;;;;;19.65;15.35;;;4.70;99.90;;;;;;4987954;28;20210;-84
2021/11/06 01:11:18;;;;;;;21.38;14.48;;;4.70;99.90;;;;;;4983993;28;20242;-83
2021/11/06 01:13:45;;;;;;;21.95;16.08;;;4.70;99.90;;;;;;4997431;28;20465;-83
2021/11/06 01:16:12;;;;;;;14.48;13.05;;;4.70;99.90;;;;;;5003372;28;20202;-83
2021/11/06 01:18:38;;;;;;;17.30;15.48;;;4.70;99.90;;;;;;4991131;28;20238;-82
2021/11/06 01:21:07;;;;;;;17.80;14.10;;;4.70;99.90;;;;;;4984140;28;20203;-81
2021/11/06 01:23:34;;;;;;;19.35;15.43;;;4.60;99.90;;;;;;4983971;28;20228;-83
2021/11/06 01:26:02;;;;;;;18.60;15.60;;;4.60;99.90;;;;;;4989071;28;20201;-82
2021/11/06 01:28:29;;;;;;;22.50;15.63;;;4.60;99.90;;;;;;5004295;28;20264;-82
2021/11/06 01:30:56;;;;;;;16.67;14.77;;;4.50;99.90;;;;;;5001882;28;20204;-83
2021/11/06 01:33:23;;;;;;;19.00;14.73;;;4.50;99.90;;;;;;4985230;28;20234;-82
2021/11/06 01:35:50;;;;;;;15.18;13.27;;;4.50;99.90;;;;;;4989524;28;20211;-83
2021/11/06 01:38:18;;;;;;;16.52;14.68;;;4.50;99.90;;;;;;4988529;28;20224;-82
2021/11/06 01:40:46;;;;;;;16.50;12.90;;;4.50;99.90;;;;;;4990699;28;20215;-83
2021/11/06 01:43:13;;;;;;;17.50;15.27;;;4.50;99.90;;;;;;5005263;28;20238;-83
2021/11/06 01:45:40;;;;;;;17.33;14.02;;;4.40;99.90;;;;;;5002378;28;20679;-83
2021/11/06 01:48:07;;;;;;;17.77;14.20;;;4.40;99.90;;;;;;4986326;28;20550;-83
2021/11/06 01:50:35;;;;;;;19.98;14.88;;;4.40;99.90;;;;;;4985709;28;20636;-81
2021/11/06 01:53:02;;;;;;;17.35;14.93;;;4.30;99.90;;;;;;4986238;28;20589;-81
2021/11/06 01:55:31;;;;;;;14.15;12.50;;;4.30;99.90;;;;;;4988444;28;20230;-84
2021/11/06 01:57:59;;;;;;;17.83;14.25;;;4.30;99.90;;;;;;4987465;28;20212;-83
2021/11/06 02:00:29;;;;;;;15.30;13.65;;;4.20;99.90;;;;;;4987208;28;20207;-83
2021/11/06 02:02:56;;;;;;;17.98;14.05;;;4.20;99.90;;;;;;5006114;28;20233;-83
2021/11/06 02:05:23;;;;;;;15.88;13.02;;;4.20;99.90;;;;;;5006479;28;20278;-83
2021/11/06 02:07:50;;;;;;;19.40;14.15;;;4.10;99.90;;;;;;5006469;28;20299;-83
2021/11/06 02:10:17;;;;;;;16.33;14.65;;;4.10;99.90;;;;;;4992184;28;20208;-83
2021/11/06 02:12:46;;;;;;;16.33;12.63;;;4.10;99.90;;;;;;4987124;28;20232;-83
2021/11/06 02:15:16;;;;;;;16.50;13.88;;;4.10;99.90;;;;;;5001764;28;20759;-83
2021/11/06 02:17:43;;;;;;;15.65;13.32;;;4.10;99.90;;;;;;5002392;28;20219;-82
2021/11/06 02:20:14;;;;;;;20.08;16.70;;;4.10;99.90;;;;;;5003822;28;20214;-83
2021/11/06 02:22:43;;;;;;;22.13;15.07;;;4.10;99.90;;;;;;4993154;28;20258;-83
2021/11/06 02:25:10;;;;;;;17.35;14.57;;;4.10;99.90;;;;;;4992650;28;20218;-83
2021/11/06 02:27:37;;;;;;;19.98;14.77;;;4.00;99.90;;;;;;4999239;28;20216;-83
2021/11/06 02:30:06;;;;;;;15.73;14.10;;;4.10;99.90;;;;;;4993474;28;20205;-82
2021/11/06 02:32:33;;;;;;;19.13;14.98;;;4.00;99.90;;;;;;4989917;28;20811;-81
2021/11/06 02:35:00;;;;;;;20.27;13.20;;;4.00;99.90;;;;;;4997905;28;20208;-82
2021/11/06 02:37:27;;;;;;;17.13;12.85;;;4.00;99.90;;;;;;5009856;28;20195;-82
2021/11/06 02:39:55;;;;;;;19.75;13.60;;;4.00;99.90;;;;;;5012478;28;20227;-83
2021/11/06 02:42:22;;;;;;;16.63;13.20;;;4.00;99.90;;;;;;4996697;28;20224;-83
2021/11/06 02:44:49;;;;;;;20.52;13.60;;;4.00;99.90;;;;;;4996354;28;20215;-83
2021/11/06 02:47:16;;;;;;;16.15;14.43;;;4.00;99.90;;;;;;4999224;28;20566;-83
2021/11/06 02:49:43;;;;;;;17.05;13.10;;;3.90;99.90;;;;;;5005344;28;20207;-83
2021/11/06 02:52:10;;;;;;;16.05;13.07;;;3.90;99.90;;;;;;4997993;28;20259;-84
2021/11/06 02:54:37;;;;;;;17.23;14.02;;;3.90;99.90;;;;;;4997153;28;20222;-83
2021/11/06 02:57:05;;;;;;;18.05;14.05;;;3.90;99.90;;;;;;4995981;28;20217;-82
2021/11/06 02:59:32;;;;;;;15.88;13.02;;;3.80;99.90;;;;;;4993828;28;20221;-82
2021/11/06 03:01:59;;;;;;;16.48;13.73;;;3.80;99.90;;;;;;4995874;28;20196;-83
2021/11/06 03:04:25;;;;;;;16.90;15.13;;;3.80;99.90;;;;;;4983403;28;20600;-83
2021/11/06 03:06:52;;;;;;;17.40;15.55;;;3.70;99.90;;;;;;4983929;28;20215;-82
2021/11/06 03:09:19;;;;;;;18.90;15.68;;;3.70;99.90;;;;;;4992125;28;20202;-83
2021/11/06 03:11:46;;;;;;;23.38;16.20;;;3.60;99.90;;;;;;5005479;28;20242;-83
2021/11/06 03:14:14;;;;;;;28.15;16.75;;;3.60;99.90;;;;;;5002777;28;20264;-82
2021/11/06 03:16:42;;;;;;;22.88;15.85;;;3.60;99.90;;;;;;4993041;28;20229;-81
2021/11/06 03:19:09;;;;;;;26.30;16.35;;;3.50;99.90;;;;;;4998762;28;20231;-81
2021/11/06 03:21:36;;;;;;;31.67;18.92;;;3.50;99.90;;;;;;4998702;28;20212;-82
2021/11/06 03:24:04;;;;;;;29.67;18.65;;;3.50;99.90;;;;;;4997909;28;20219;-82
2021/11/06 03:26:31;;;;;;;23.42;18.45;;;3.60;99.90;;;;;;4997741;28;20214;-82
2021/11/06 03:28:58;;;;;;;56.85;20.60;;;3.60;99.90;;;;;;5004716;28;20225;-83
2021/11/06 03:31:26;;;;;;;80.22;21.05;;;3.70;99.90;;;;;;5004152;28;20212;-82
2021/11/06 03:33:53;;;;;;;21.70;15.95;;;3.80;99.90;;;;;;5002574;28;20229;-83
2021/11/06 03:36:20;;;;;;;36.50;19.02;;;3.90;99.90;;;;;;5004085;28;20250;-83
2021/11/06 03:38:48;;;;;;;219.65;34.45;;;3.90;99.90;;;;;;5003233;28;20227;-83
2021/11/06 03:41:15;;;;;;;150.98;28.73;;;3.90;99.90;;;;;;5002327;28;20306;-82
2021/11/06 03:43:41;;;;;;;50.28;21.38;;;4.00;99.90;;;;;;4986376;28;20227;-83
2021/11/06 03:46:08;;;;;;;42.13;19.05;;;4.00;99.90;;;;;;4983247;28;20234;-83
2021/11/06 03:48:36;;;;;;;29.73;20.35;;;4.10;99.90;;;;;;4996718;28;20231;-82
2021/11/06 03:51:03;;;;;;;74.07;22.15;;;4.00;99.90;;;;;;5002074;28;20564;-83
2021/11/06 03:53:30;;;;;;;69.95;24.27;;;4.10;99.90;;;;;;4988301;28;20231;-83
2021/11/06 03:55:57;;;;;;;71.35;23.75;;;4.00;99.90;;;;;;4991760;28;20204;-83
2021/11/06 03:58:24;;;;;;;67.68;25.55;;;3.90;99.90;;;;;;5001388;28;20300;-82
2021/11/06 04:00:51;;;;;;;62.22;22.95;;;3.90;99.90;;;;;;4993870;28;20204;-83
2021/11/06 04:03:18;;;;;;;60.25;22.92;;;3.90;99.90;;;;;;4984522;28;20238;-83
2021/11/06 04:05:46;;;;;;;41.00;24.05;;;3.90;99.90;;;;;;4995555;28;20209;-83
2021/11/06 04:08:13;;;;;;;61.38;27.77;;;3.90;99.90;;;;;;5004810;28;20208;-83
2021/11/06 04:10:40;;;;;;;51.30;26.75;;;3.80;99.90;;;;;;4996868;28;20682;-82
2021/11/06 04:13:07;;;;;;;59.40;28.33;;;3.80;99.90;;;;;;4982309;28;20237;-83
2021/11/06 04:15:33;;;;;;;31.17;22.90;;;3.80;99.90;;;;;;4987508;28;20200;-83
2021/11/06 04:18:00;;;;;;;32.10;23.42;;;3.80;99.90;;;;;;5002865;28;20215;-82
2021/11/06 04:20:28;;;;;;;25.23;20.25;;;3.80;99.90;;;;;;5001757;28;20230;-83
2021/11/06 04:22:56;;;;;;;28.02;19.85;;;3.80;99.90;;;;;;5001244;28;20236;-82
2021/11/06 04:25:23;;;;;;;27.05;17.20;;;3.90;99.90;;;;;;4982629;28;20200;-82
2021/11/06 04:27:49;;;;;;;39.58;18.08;;;3.80;99.90;;;;;;4982144;28;20870;-82
2021/11/06 04:30:16;;;;;;;23.90;16.30;;;3.80;99.90;;;;;;4982258;28;20215;-82
2021/11/06 04:32:44;;;;;;;17.42;13.75;;;3.80;99.90;;;;;;4982932;28;20227;-82
2021/11/06 04:35:12;;;;;;;19.25;15.23;;;3.80;99.90;;;;;;4984623;28;20221;-82
2021/11/06 04:37:39;;;;;;;37.20;17.38;;;3.70;99.90;;;;;;4989114;28;20210;-82
2021/11/06 04:40:10;;;;;;;57.55;20.15;;;3.70;99.90;;;;;;5001192;28;20257;-82
2021/11/06 04:42:37;;;;;;;20.42;14.60;;;3.60;99.90;;;;;;4995108;28;20723;-82
2021/11/06 04:45:05;;;;;;;21.05;14.25;;;3.60;99.90;;;;;;4982424;28;20218;-82
2021/11/06 04:47:32;;;;;;;17.73;13.93;;;3.60;99.90;;;;;;4986455;28;20283;-82
2021/11/06 04:49:59;;;;;;;18.10;13.05;;;3.60;99.90;;;;;;5001686;28;20210;-82
2021/11/06 04:52:26;;;;;;;13.35;11.98;;;3.60;99.90;;;;;;5000799;28;20252;-82
2021/11/06 04:54:53;;;;;;;13.30;11.90;;;3.60;99.90;;;;;;5001619;28;20213;-82
2021/11/06 04:57:21;;;;;;;19.98;12.60;;;3.60;99.90;;;;;;5001191;28;20290;-82
2021/11/06 04:59:48;;;;;;;21.33;11.30;;;3.60;99.90;;;;;;5001777;28;20225;-82
2021/11/06 05:02:15;;;;;;;16.40;12.70;;;3.60;99.90;;;;;;5000949;28;20238;-82
2021/11/06 05:04:42;;;;;;;12.27;11.07;;;3.60;99.90;;;;;;5002325;28;20235;-82
2021/11/06 05:07:09;;;;;;;15.48;12.70;;;3.60;99.90;;;;;;4995796;28;20208;-82
2021/11/06 05:09:36;;;;;;;14.00;11.80;;;3.70;99.90;;;;;;4981952;28;20565;-82
2021/11/06 05:12:03;;;;;;;18.35;13.18;;;3.70;99.90;;;;;;4982613;28;20498;-82
2021/11/06 05:14:31;;;;;;;17.35;12.95;;;3.70;99.90;;;;;;4981997;28;20207;-82
2021/11/06 05:16:57;;;;;;;15.90;12.32;;;3.70;99.90;;;;;;4985841;28;20208;-82
2021/11/06 05:19:24;;;;;;;33.10;14.40;;;3.70;99.90;;;;;;5000307;28;20226;-82
2021/11/06 05:21:51;;;;;;;23.95;16.02;;;3.70;99.90;;;;;;4981476;28;20220;-82
2021/11/06 05:24:18;;;;;;;29.60;18.20;;;3.60;99.90;;;;;;4981973;28;20209;-82
2021/11/06 05:26:44;;;;;;;30.50;15.30;;;3.60;99.90;;;;;;5000006;28;20207;-82
2021/11/06 05:29:12;;;;;;;32.03;19.35;;;3.50;99.90;;;;;;5001158;28;20214;-82
2021/11/06 05:31:41;;;;;;;24.48;14.43;;;3.50;99.90;;;;;;5000065;28;20230;-82
2021/11/06 05:34:08;;;;;;;16.85;13.00;;;3.50;99.90;;;;;;5000899;28;20233;-82
2021/11/06 05:36:35;;;;;;;19.65;10.63;;;3.50;99.90;;;;;;4984673;28;20221;-82
2021/11/06 05:39:02;;;;;;;28.45;13.23;;;3.50;99.90;;;;;;4982779;28;20209;-82
2021/11/06 05:41:29;;;;;;;21.13;11.80;;;3.40;99.90;;;;;;4982608;28;20210;-82
2021/11/06 05:43:56;;;;;;;38.97;13.55;;;3.40;99.90;;;;;;4982002;28;20236;-82
2021/11/06 05:46:22;;;;;;;33.22;12.93;;;3.40;99.90;;;;;;4983695;28;20207;-82
2021/11/06 05:48:51;;;;;;;21.70;12.10;;;3.40;99.90;;;;;;4994005;28;20683;-82
2021/11/06 05:51:18;;;;;;;61.17;13.73;;;3.30;99.90;;;;;;5001897;28;20206;-82
2021/11/06 05:53:44;;;;;;;26.48;13.55;;;3.30;99.90;;;;;;5001921;28;20233;-82
2021/11/06 05:56:11;;;;;;;58.83;15.80;;;3.30;99.90;;;;;;5002481;28;20219;-82
2021/11/06 05:58:38;;;;;;;21.98;12.20;;;3.20;99.90;;;;;;5001611;28;20203;-82
2021/11/06 06:01:05;;;;;;;33.03;15.15;;;3.20;99.90;;;;;;5002920;28;20226;-82
2021/11/06 06:03:32;;;;;;;32.83;12.82;;;3.30;99.90;;;;;;4995359;28;20219;-82
2021/11/06 06:06:00;;;;;;;31.73;12.20;;;3.30;99.90;;;;;;4983295;28;20209;-82
2021/11/06 06:08:27;;;;;;;26.52;12.25;;;3.40;99.90;;;;;;4988529;28;20212;-82
2021/11/06 06:10:54;;;;;;;13.57;10.57;;;3.30;99.90;;;;;;5007759;28;20219;-80
2021/11/06 06:13:20;;;;;;;30.23;13.27;;;3.40;99.90;;;;;;5005741;28;20314;-80
2021/11/06 06:15:47;;;;;;;52.97;15.32;;;3.40;99.90;;;;;;4984283;28;20204;-82
2021/11/06 06:18:15;;;;;;;54.92;15.75;;;3.40;99.90;;;;;;5001678;28;20581;-81
2021/11/06 06:20:41;;;;;;;26.80;13.88;;;3.50;99.90;;;;;;5004085;28;20294;-82
2021/11/06 06:23:10;;;;;;;35.03;15.57;;;3.50;99.90;;;;;;5004908;28;20234;-82
2021/11/06 06:25:36;;;;;;;44.42;15.50;;;3.50;99.90;;;;;;5006356;28;20215;-82
2021/11/06 06:28:04;;;;;;;32.80;14.02;;;3.50;99.90;;;;;;5005905;28;20204;-82
2021/11/06 06:30:33;;;;;;;28.08;13.43;;;3.60;99.90;;;;;;5006977;28;20215;-82
2021/11/06 06:33:00;;;;;;;29.05;14.90;;;3.60;99.90;;;;;;4989221;28;20297;-82
2021/11/06 06:35:29;;;;;;;41.50;15.05;;;3.60;99.90;;;;;;4986849;28;20222;-82
2021/11/06 06:37:56;;;;;;;54.53;15.27;;;3.60;99.90;;;;;;5002099;28;20207;-82
2021/11/06 06:40:24;;;;;;;43.83;14.23;;;3.60;99.90;;;;;;5006315;28;20273;-82
2021/11/06 06:42:51;;;;;;;38.65;15.13;;;3.60;99.90;;;;;;5005854;28;20226;-82
2021/11/06 06:45:18;;;;;;;38.55;15.63;;;3.60;99.90;;;;;;5005185;28;20216;-82
2021/11/06 06:47:45;;;;;;;28.92;13.20;;;3.70;99.90;;;;;;4990898;28;20203;-82
2021/11/06 06:50:13;;;;;;;59.83;15.20;;;3.70;99.90;;;;;;4985860;28;20227;-82
2021/11/06 06:52:41;;;;;;;46.45;15.20;;;3.70;99.90;;;;;;4994951;28;20286;-82
2021/11/06 06:55:09;;;;;;;37.80;14.88;;;3.70;99.90;;;;;;4987886;28;20205;-82
2021/11/06 06:57:37;;;;;;;25.48;13.38;;;3.50;99.90;;;;;;4986181;28;20236;-82
2021/11/06 07:00:09;;;;;;;24.30;13.55;;;3.40;99.90;;;;;;4986534;28;20255;-82
2021/11/06 07:02:44;;;;;;;29.52;13.45;;;3.40;99.90;;;;;;4985549;28;20233;-82
2021/11/06 07:05:12;;;;;;;53.25;16.95;;;3.50;99.90;;;;;;4987232;28;20221;-81
2021/11/06 07:07:39;;;;;;;33.60;11.80;;;3.50;99.90;;;;;;4989040;28;20575;-81
2021/11/06 07:10:07;;;;;;;26.10;9.48;;;3.20;99.90;;;;;;4992444;28;20291;-81
2021/11/06 07:12:34;;;;;;;27.50;12.27;;;3.30;99.90;;;;;;4992927;28;20229;-81
2021/11/06 07:15:02;;;;;;;30.55;10.75;;;3.30;99.90;;;;;;5001669;28;20204;-82
2021/11/06 07:17:29;;;;;;;22.30;9.55;;;3.10;99.90;;;;;;5002083;28;20216;-82
2021/11/06 07:19:56;;;;;;;15.75;9.70;;;3.10;99.90;;;;;;5000126;28;20231;-82
2021/11/06 07:22:23;;;;;;;19.15;9.65;;;3.10;99.90;;;;;;4982519;28;20247;-82
2021/11/06 07:24:49;;;;;;;27.83;11.40;;;2.90;99.90;;;;;;4983994;28;20213;-82
2021/11/06 07:27:16;;;;;;;16.60;8.93;;;2.90;99.90;;;;;;5003294;28;20213;-81
2021/11/06 07:29:43;;;;;;;40.25;14.77;;;2.90;99.90;;;;;;5001690;28;20211;-81
2021/11/06 07:32:12;;;;;;;22.92;10.43;;;2.80;99.90;;;;;;4999675;28;20234;-82
2021/11/06 07:34:39;;;;;;;17.52;9.75;;;2.70;99.90;;;;;;4993476;28;20208;-81
2021/11/06 07:37:06;;;;;;;31.73;12.32;;;2.90;99.90;;;;;;4981617;28;20210;-82
2021/11/06 07:39:33;;;;;;;27.38;11.57;;;3.00;99.90;;;;;;4981478;28;20220;-82
2021/11/06 07:42:00;;;;;;;27.88;13.20;;;3.00;99.90;;;;;;4985480;28;20288;-82
2021/11/06 07:44:27;;;;;;;39.60;13.07;;;3.10;99.90;;;;;;5001159;28;20222;-82
2021/11/06 07:46:53;;;;;;;26.88;11.52;;;3.30;99.90;;;;;;5001735;28;20215;-82
2021/11/06 07:49:21;;;;;;;27.65;12.80;;;3.30;99.90;;;;;;5001261;28;20230;-82
2021/11/06 07:51:48;;;;;;;22.58;9.60;;;3.30;99.90;;;;;;5001039;28;20214;-82
2021/11/06 07:54:15;;;;;;;23.80;9.52;;;3.40;99.90;;;;;;5005372;28;20591;-80
2021/11/06 07:56:42;;;;;;;25.30;10.27;;;3.50;99.90;;;;;;5001237;28;20567;-82
2021/11/06 07:59:09;;;;;;;23.27;11.30;;;3.40;99.90;;;;;;4982232;28;20669;-80
2021/11/06 08:01:36;;;;;;;23.38;12.18;;;3.40;99.90;;;;;;4981905;28;20232;-82
2021/11/06 08:04:03;;;;;;;15.55;9.68;;;3.40;99.90;;;;;;4982652;28;20234;-82
2021/11/06 08:06:31;;;;;;;31.67;12.70;;;3.60;99.90;;;;;;4983771;28;20224;-81
2021/11/06 08:08:58;;;;;;;20.50;9.82;;;3.60;99.90;;;;;;5001186;28;20204;-82
2021/11/06 08:11:26;;;;;;;21.52;10.82;;;3.60;99.90;;;;;;5002253;28;20204;-81
2021/11/06 08:13:53;;;;;;;30.85;13.07;;;3.70;99.90;;;;;;5001035;28;20650;-81
2021/11/06 08:16:20;;;;;;;31.05;10.27;;;3.70;99.90;;;;;;5001524;28;20214;-81
2021/11/06 08:18:47;;;;;;;26.30;10.82;;;3.70;99.90;;;;;;4986506;28;20214;-81
2021/11/06 08:21:14;;;;;;;26.15;12.68;;;3.80;99.90;;;;;;4981136;28;20653;-81
2021/11/06 08:23:42;;;;;;;26.33;12.00;;;3.90;99.90;;;;;;4994830;28;20234;-81
2021/11/06 08:26:09;;;;;;;54.10;13.43;;;3.80;99.90;;;;;;5000942;28;20219;-81
2021/11/06 08:28:36;;;;;;;34.78;14.57;;;3.90;99.90;;;;;;4987871;28;20210;-81
2021/11/06 08:31:05;;;;;;;43.90;16.05;;;3.90;99.90;;;;;;4981865;28;20207;-82
2021/11/06 08:33:33;;;;;;;40.75;15.32;;;3.90;99.90;;;;;;4993069;28;20609;-83
2021/11/06 08:36:01;;;;;;;25.65;11.95;;;4.00;99.90;;;;;;5004415;28;20627;-82
2021/11/06 08:38:29;;;;;;;52.50;17.08;;;4.10;99.90;;;;;;4998835;28;20207;-84
2021/11/06 08:40:58;;;;;;;25.75;12.45;;;4.30;99.90;;;;;;4988209;28;20224;-85
2021/11/06 08:43:26;;;;;;;27.67;13.75;;;4.30;99.90;;;;;;4988066;28;20288;-84
2021/11/06 08:45:53;;;;;;;42.22;15.95;;;4.50;99.90;;;;;;4989216;28;20242;-85
2021/11/06 08:48:20;;;;;;;22.92;10.90;;;4.70;99.90;;;;;;4998600;28;20639;-84
2021/11/06 08:50:48;;;;;;;40.78;12.00;;;4.90;99.90;;;;;;5000442;28;20204;-83
2021/11/06 08:53:15;;;;;;;43.70;13.05;;;5.00;99.90;;;;;;4985936;28;20292;-81
2021/11/06 08:55:41;;;;;;;24.73;11.55;;;5.10;99.90;;;;;;4990493;28;20204;-82
2021/11/06 08:58:10;;;;;;;33.30;11.85;;;5.20;99.90;;;;;;4987141;28;20200;-81
2021/11/06 09:00:39;;;;;;;48.80;12.07;;;5.20;99.90;;;;;;4986879;28;20710;-83
2021/11/06 09:03:09;;;;;;;13.98;9.18;;;5.20;99.90;;;;;;4992375;28;20224;-81
2021/11/06 09:05:37;;;;;;;18.52;10.95;;;5.40;99.90;;;;;;4989431;28;20196;-84
2021/11/06 09:08:06;;;;;;;19.73;11.50;;;5.60;99.90;;;;;;4987677;28;20200;-81
2021/11/06 09:10:49;;;;;;;42.30;13.32;;;5.30;99.90;;;;;;4985032;28;20200;-84
2021/11/06 09:13:17;;;;;;;38.25;10.82;;;5.40;99.90;;;;;;4984234;28;20686;-83
2021/11/06 09:15:44;;;;;;;24.88;10.88;;;5.60;99.90;;;;;;4989921;28;20212;-83
2021/11/06 09:18:15;;;;;;;16.30;8.75;;;5.60;99.90;;;;;;4986809;28;20200;-82
2021/11/06 09:20:42;;;;;;;25.50;9.75;;;5.70;99.90;;;;;;4986193;28;20220;-81
2021/11/06 09:23:09;;;;;;;27.80;12.00;;;5.80;99.90;;;;;;4992403;28;20224;-83
2021/11/06 09:25:36;;;;;;;14.13;9.50;;;6.00;99.90;;;;;;4996515;28;20195;-83
2021/11/06 09:28:03;;;;;;;30.10;11.65;;;6.20;99.90;;;;;;4990911;28;20215;-84
2021/11/06 09:30:31;;;;;;;50.22;14.25;;;6.30;99.90;;;;;;4987060;28;20272;-84
2021/11/06 09:32:59;;;;;;;21.77;11.07;;;6.20;99.90;;;;;;4990268;28;20238;-82
2021/11/06 09:35:25;;;;;;;15.73;9.40;;;6.30;99.90;;;;;;5001597;28;20214;-84
2021/11/06 09:37:52;;;;;;;19.20;9.50;;;6.20;99.90;;;;;;4984536;28;20568;-82
2021/11/06 09:40:19;;;;;;;14.35;10.43;;;6.50;99.90;;;;;;4979107;28;20234;-83
2021/11/06 09:42:50;;;;;;;13.82;10.52;;;6.60;99.90;;;;;;4983825;28;20260;-83
2021/11/06 09:45:17;;;;;;;12.75;8.07;;;6.80;99.90;;;;;;4985130;28;20204;-82
2021/11/06 09:47:45;;;;;;;14.63;10.23;;;6.90;99.90;;;;;;4987149;28;20273;-82
2021/11/06 09:50:13;;;;;;;23.02;11.80;;;7.20;99.90;;;;;;4981614;28;20221;-82
2021/11/06 09:52:40;;;;;;;17.23;9.65;;;7.30;99.90;;;;;;4979461;28;20235;-83
2021/11/06 09:55:09;;;;;;;16.08;8.77;;;7.40;99.90;;;;;;4980433;28;20208;-83
2021/11/06 09:57:36;;;;;;;14.55;8.80;;;7.40;99.90;;;;;;4982158;28;20242;-82
2021/11/06 10:00:05;;;;;;;33.15;13.60;;;7.50;99.90;;;;;;4981965;28;20212;-84
2021/11/06 10:02:33;;;;;;;16.77;10.50;;;7.60;99.90;;;;;;4982353;28;20756;-82
2021/11/06 10:05:02;;;;;;;16.10;10.50;;;7.40;99.90;;;;;;4981818;28;20212;-83
2021/11/06 10:07:29;;;;;;;19.52;11.35;;;7.40;99.90;;;;;;4981342;28;20235;-82
2021/11/06 10:09:57;;;;;;;17.25;11.77;;;7.50;99.90;;;;;;4981260;28;20207;-82
2021/11/06 10:12:24;;;;;;;17.77;11.98;;;7.80;99.90;;;;;;4981650;28;20220;-83
2021/11/06 10:15:04;;;;;;;13.73;10.68;;;7.90;99.90;;;;;;4982632;28;20216;-83
2021/11/06 10:17:35;;;;;;;16.25;10.90;;;8.00;99.90;;;;;;4982595;28;20224;-82
2021/11/06 10:20:22;;;;;;;32.55;13.23;;;8.10;99.90;;;;;;4981988;28;20295;-83
2021/11/06 10:22:49;;;;;;;15.30;10.65;;;8.10;99.90;;;;;;4982130;28;20235;-82
2021/11/06 10:25:19;;;;;;;18.63;14.20;;;8.20;99.90;;;;;;4982989;28;20208;-84
2021/11/06 10:27:51;;;;;;;28.50;12.93;;;8.30;99.90;;;;;;4998520;28;20212;-81
2021/11/06 10:30:23;;;;;;;16.27;11.60;;;8.20;99.90;;;;;;5000163;28;20215;-81
2021/11/06 10:32:58;;;;;;;19.75;13.23;;;8.20;99.90;;;;;;5000279;28;20213;-80
2021/11/06 10:35:28;;;;;;;22.30;14.82;;;8.30;99.90;;;;;;5000172;28;20217;-81
2021/11/06 10:38:00;;;;;;;18.88;12.90;;;8.40;99.90;;;;;;5000037;28;20207;-84
2021/11/06 10:40:30;;;;;;;31.20;15.48;;;8.50;99.90;;;;;;4994600;28;20285;-85
2021/11/06 10:43:00;;;;;;;20.30;13.38;;;8.50;99.90;;;;;;4987079;28;20326;-85
2021/11/06 10:45:32;;;;;;;19.88;14.20;;;8.60;99.90;;;;;;4985341;28;20200;-85
2021/11/06 10:48:05;;;;;;;20.25;13.85;;;8.70;99.90;;;;;;4984084;28;20222;-83
2021/11/06 10:50:59;;;;;;;22.77;15.07;;;8.70;99.90;;;;;;4984226;28;20220;-82
2021/11/06 10:53:41;;;;;;;20.02;15.82;;;8.90;99.90;;;;;;4972192;28;20230;-80
2021/11/06 10:56:22;;;;;;;24.88;15.95;;;8.90;99.90;;;;;;4982223;28;20767;-81
2021/11/06 10:58:51;;;;;;;21.25;15.93;;;8.80;99.90;;;;;;4981077;28;20204;-80
2021/11/06 11:01:20;;;;;;;19.55;15.57;;;8.80;99.90;;;;;;4980579;28;20232;-80
2021/11/06 11:03:49;;;;;;;19.83;14.80;;;8.90;99.90;;;;;;4980422;28;20228;-80
2021/11/06 11:06:19;;;;;;;20.92;14.43;;;9.00;99.90;;;;;;4979500;28;20615;-80
2021/11/06 11:08:47;;;;;;;20.50;15.98;;;9.00;99.90;;;;;;4981278;28;20659;-82
2021/11/06 11:11:18;;;;;;;20.58;14.27;;;9.00;99.90;;;;;;4982491;28;20696;-81
2021/11/06 11:13:50;;;;;;;21.13;16.00;;;8.90;99.90;;;;;;4983184;28;20233;-82
2021/11/06 11:16:18;;;;;;;23.60;16.55;;;9.00;99.90;;;;;;4983182;28;20213;-81
2021/11/06 11:18:46;;;;;;;30.42;19.67;;;9.00;99.90;;;;;;4984570;28;20200;-81
2021/11/06 11:21:17;;;;;;;20.77;16.85;;;9.10;99.90;;;;;;5001543;28;20216;-82
2021/11/06 11:23:47;;;;;;;22.15;16.33;;;9.20;99.90;;;;;;4998458;28;20227;-81
2021/11/06 11:26:15;;;;;;;22.20;17.27;;;9.40;99.90;;;;;;4981994;28;20211;-82
2021/11/06 11:28:42;;;;;;;23.83;16.98;;;9.50;99.90;;;;;;4980511;28;20221;-84
2021/11/06 11:31:10;;;;;;;23.05;17.88;;;9.60;99.90;;;;;;4981923;28;20206;-81
2021/11/06 11:33:39;;;;;;;19.50;15.60;;;9.70;99.90;;;;;;4987595;28;20230;-81
2021/11/06 11:36:08;;;;;;;20.25;15.13;;;9.70;99.90;;;;;;5001519;28;20210;-81
2021/11/06 11:38:45;;;;;;;23.90;16.15;;;9.70;99.90;;;;;;5000743;28;20348;-83
2021/11/06 11:41:26;;;;;;;19.67;16.75;;;9.90;99.90;;;;;;5002671;28;20260;-82
2021/11/06 11:44:02;;;;;;;24.38;19.35;;;10.10;99.90;;;;;;4994451;28;20236;-81
2021/11/06 11:46:39;;;;;;;22.35;16.42;;;10.30;99.90;;;;;;4982864;28;20282;-82
2021/11/06 11:49:07;;;;;;;23.63;16.85;;;10.40;99.90;;;;;;4983481;28;20280;-82
2021/11/06 11:51:35;;;;;;;23.25;16.38;;;10.40;99.90;;;;;;4983455;28;20207;-82
2021/11/06 11:54:06;;;;;;;21.30;17.00;;;10.40;99.90;;;;;;5003114;28;20254;-82
2021/11/06 11:56:36;;;;;;;17.17;14.20;;;10.60;99.90;;;;;;5002251;28;20456;-81
2021/11/06 11:59:03;;;;;;;23.53;16.60;;;10.90;99.90;;;;;;4980854;28;20462;-83
2021/11/06 12:01:30;;;;;;;20.60;16.00;;;11.10;99.90;;;;;;4982753;28;20485;-82
2021/11/06 12:04:20;;;;;;;17.30;15.40;;;11.20;99.90;;;;;;4984446;28;20474;-83
2021/11/06 12:06:47;;;;;;;21.47;17.43;;;11.10;99.90;;;;;;4980085;28;20459;-82
2021/11/06 12:09:24;;;;;;;20.80;16.33;;;11.00;99.90;;;;;;4999134;28;20876;-81
2021/11/06 12:11:53;;;;;;;18.35;14.98;;;11.00;99.90;;;;;;4979901;28;20901;-81
2021/11/06 12:14:22;;;;;;;19.88;15.48;;;11.10;99.90;;;;;;4979687;28;20210;-82
2021/11/06 12:16:57;;;;;;;17.60;15.80;;;11.50;99.90;;;;;;4979808;28;20210;-82
2021/11/06 12:19:38;;;;;;;19.87;15.73;;;12.20;99.90;;;;;;4979244;28;20447;-82
2021/11/06 12:22:14;;;;;;;22.10;16.20;;;12.90;99.90;;;;;;4978554;28;20558;-83
2021/11/06 12:24:43;;;;;;;18.03;15.83;;;13.60;99.90;;;;;;4980985;28;20442;-81
2021/11/06 12:27:12;;;;;;;19.47;17.40;;;14.30;99.90;;;;;;4980103;28;20452;-81
2021/11/06 12:29:55;;;;;;;19.57;15.70;;;15.30;99.90;;;;;;4979095;28;20826;-81
2021/11/06 12:32:49;;;;;;;18.83;15.70;;;16.10;97.20;;;;;;4979428;28;20484;-81
2021/11/06 12:35:31;;;;;;;18.00;15.20;;;16.80;95.20;;;;;;4979342;28;20452;-82
2021/11/06 12:38:41;;;;;;;16.80;14.33;;;17.90;94.00;;;;;;4979897;28;20465;-80
2021/11/06 12:41:12;;;;;;;16.90;15.13;;;19.00;91.80;;;;;;4979472;28;20459;-81